Portada
METAR-TAF:

METAR-TAF

Aeroports :

Illa Christmas, Austràlia

latitud: 10-26S, longitud: 105-41E, altitud: 279 m

Observació

L'informe es va fer fa 32 minuts, a les 00:00 UTC
Vent 7 kt del Est
Temperatura 24°C
Humitat 94%
Pressió 1012 hPa
Visibilitat: 1800 m
Cel cobert a una alçada de 200 ft

METAR: YPXM 220000Z AUTO 09007KT 1800 // OVC002 24/23 Q1012

Hora: 07:32 (00:32 UTC)

Pronòstic

L'informe es va fer fa 1 hora i 24 minuts, a les 23:08 UTC
Pronòstic vàlid del 21 a les 23 UTC al 23 a les 00 UTC
Vent 12 kt del Sud-Est
Visibilitat 10 km o més
Cel ennuvolat a una alçada de 400 ft
Temporalment
l' 21 a les 23 UTC al 22 a les 04 UTC
Visibilitat: 1000 m
Cel cobert a una alçada de 200 ft
xàfecs de pluja
Temporalment
l' 22 a les 12 UTC al 23 a les 00 UTC
Visibilitat: 1000 m
Cel cobert a una alçada de 200 ft
xàfecs de pluja

TAF: YPXM 212308Z 2123/2300 13012KT 9999 BKN004 TEMPO 2123/2204 1000 SHRA OVC002 TEMPO 2212/2300 1000 SHRA OVC002

Observacions i pronòstics meteorològics de més de 4000 aeroports (METAR i TAF).

Les estacions disponibles són els punts grocs i vermells al mapa.

Posi el ratolí al punt desitjat per veure el nom de l'estació.

Feu clic per veure les observacions i els pronòstics meteorològics.

Per canviar el mapa: feu clic els botons verds amb una creu de color negre per apropar; al botó verd amb un guió per allunyar la imatge; o en les fletxes verdes per a mapes adjacents.


METAR-TAF: